Time,TemperatureF,DewpointF,PressureIn,WindDirection,WindDirectionDegrees,WindSpeedMPH,WindSpeedGustMPH,Humidity,HourlyPrecipIn,Conditions,Clouds,dailyrainin,SolarRadiationWatts/m^2,SoftwareType,DateUTC
2013-01-09 00:00:00,14.6,9.3,30.46,South,184,0.0,2.0,79,0.00,,SKC,0.01,0.00,VWS V14.01,2013-01-09 07:00:00,
2013-01-09 00:06:00,14.5,9.2,30.45,South,184,2.0,3.0,79,0.00,,SKC,0.00,0.00,VWS V14.01,2013-01-09 07:06:00,
2013-01-09 00:12:00,14.3,9.0,30.45,South,186,6.0,6.0,79,0.00,,SKC,0.00,0.00,VWS V14.01,2013-01-09 07:12:00,
2013-01-09 00:18:00,14.6,9.6,30.46,South,187,2.0,6.0,80,0.00,,SKC,0.00,0.00,VWS V14.01,2013-01-09 07:18:00,
2013-01-09 00:24:00,15.0,10.0,30.47,South,188,4.0,7.0,80,0.00,,SKC,0.00,0.00,VWS V14.01,2013-01-09 07:24:00,
2013-01-09 00:30:00,15.4,10.4,30.47,SSW,192,2.0,7.0,80,0.00,,SKC,0.00,0.00,VWS V14.01,2013-01-09 07:30:00,
2013-01-09 00:35:00,15.6,10.3,30.44,West,271,4.0,5.0,79,0.00,,SKC,0.00,0.00,VWS V14.01,2013-01-09 07:35:00,
2013-01-09 00:41:00,15.9,10.6,30.43,West,271,2.0,5.0,79,0.00,,SKC,0.00,0.00,VWS V14.01,2013-01-09 07:41:00,
2013-01-09 00:47:00,16.0,10.6,30.43,West,271,0.0,5.0,79,0.00,,SKC,0.00,0.00,VWS V14.01,2013-01-09 07:47:00,
2013-01-09 00:53:00,15.9,10.3,30.43,West,271,2.0,5.0,78,0.00,,SKC,0.00,0.00,VWS V14.01,2013-01-09 07:53:00,
2013-01-09 00:59:00,15.8,10.2,30.44,WSW,244,3.0,5.0,78,0.00,,SKC,0.00,0.00,VWS V14.01,2013-01-09 07:59:00,
2013-01-09 01:00:00,15.9,10.6,30.44,WSW,242,2.0,5.0,79,0.00,,SKC,0.00,0.00,VWS V14.01,2013-01-09 08:00:00,
2013-01-09 01:05:00,15.8,10.2,30.44,WSW,242,0.0,2.0,78,0.00,,SKC,0.00,0.00,VWS V14.01,2013-01-09 08:05:00,
2013-01-09 01:11:00,15.7,10.1,30.44,WSW,242,0.0,4.0,78,0.00,,SKC,0.00,0.00,VWS V14.01,2013-01-09 08:11:00,
2013-01-09 01:17:00,15.6,10.0,30.44,WSW,242,0.0,4.0,78,0.00,,SKC,0.00,0.00,VWS V14.01,2013-01-09 08:17:00,
2013-01-09 01:23:00,15.5,9.9,30.44,WSW,242,0.0,4.0,78,0.00,,SKC,0.00,0.00,VWS V14.01,2013-01-09 08:23:00,
2013-01-09 01:29:00,15.3,9.7,30.44,WSW,242,0.0,4.0,78,0.00,,SKC,0.00,0.00,VWS V14.01,2013-01-09 08:29:00,
2013-01-09 01:30:00,15.2,9.3,30.44,WSW,242,0.0,4.0,77,0.00,,SKC,0.00,0.00,VWS V14.01,2013-01-09 08:30:00,
2013-01-09 01:35:00,15.0,9.1,30.43,WSW,242,0.0,0.0,77,0.00,,SKC,0.00,0.00,VWS V14.01,2013-01-09 08:35:00,
2013-01-09 01:41:00,14.7,8.8,30.43,WSW,242,0.0,2.0,77,0.00,,SKC,0.00,0.00,VWS V14.01,2013-01-09 08:41:00,
2013-01-09 01:47:00,14.3,8.4,30.45,WSW,242,0.0,2.0,77,0.00,,SKC,0.00,0.00,VWS V14.01,2013-01-09 08:47:00,
2013-01-09 01:53:00,13.9,8.3,30.45,WSW,242,0.0,2.0,78,0.00,,SKC,0.00,0.00,VWS V14.01,2013-01-09 08:53:00,
2013-01-09 01:59:00,13.5,7.9,30.46,WSW,242,0.0,2.0,78,0.00,,SKC,0.00,0.00,VWS V14.01,2013-01-09 08:59:00,
2013-01-09 02:00:00,13.5,7.9,30.46,WSW,242,0.0,2.0,78,0.00,,SKC,0.00,0.00,VWS V14.01,2013-01-09 09:00:00,
2013-01-09 02:05:00,13.2,7.6,30.47,WSW,242,0.0,1.0,78,0.00,,SKC,0.00,0.00,VWS V14.01,2013-01-09 09:05:00,
2013-01-09 02:11:00,12.8,7.2,30.47,WSW,242,0.0,1.0,78,0.00,,SKC,0.00,0.00,VWS V14.01,2013-01-09 09:11:00,
2013-01-09 02:17:00,12.4,7.1,30.48,WSW,242,0.0,1.0,79,0.00,,SKC,0.00,0.00,VWS V14.01,2013-01-09 09:17:00,
2013-01-09 02:24:00,12.1,6.8,30.48,WSW,242,0.0,1.0,79,0.00,,SKC,0.00,0.00,VWS V14.01,2013-01-09 09:24:00,
2013-01-09 02:30:00,11.8,6.6,30.48,WSW,242,0.0,1.0,79,0.00,,SKC,0.00,0.00,VWS V14.01,2013-01-09 09:30:00,
2013-01-09 02:36:00,11.4,6.2,30.49,WSW,242,0.0,0.0,79,0.00,,SKC,0.00,0.00,VWS V14.01,2013-01-09 09:36:00,
2013-01-09 02:42:00,10.8,5.6,30.49,WSW,242,0.0,2.0,79,0.00,,SKC,0.00,0.00,VWS V14.01,2013-01-09 09:42:00,
2013-01-09 02:48:00,10.4,5.5,30.49,WSW,242,0.0,2.0,80,0.00,,SKC,0.00,0.00,VWS V14.01,2013-01-09 09:48:00,
2013-01-09 02:54:00,10.2,5.5,30.49,WSW,242,2.0,3.0,81,0.00,,SKC,0.00,0.00,VWS V14.01,2013-01-09 09:54:00,
2013-01-09 03:00:00,10.6,6.5,30.49,SSW,208,6.0,6.0,83,0.00,,SKC,0.00,0.00,VWS V14.01,2013-01-09 10:00:00,
2013-01-09 03:06:00,11.4,7.5,30.49,SW,220,0.0,7.0,84,0.00,,SKC,0.00,0.00,VWS V14.01,2013-01-09 10:06:00,
2013-01-09 03:12:00,11.5,7.6,30.49,SW,219,1.0,7.0,84,0.00,,SKC,0.00,0.00,VWS V14.01,2013-01-09 10:12:00,
2013-01-09 03:18:00,12.5,8.9,30.49,SSW,210,6.0,9.0,85,0.00,,SKC,0.00,0.00,VWS V14.01,2013-01-09 10:18:00,
2013-01-09 03:24:00,13.2,9.3,30.47,SSW,208,7.0,9.0,84,0.00,,SKC,0.00,0.00,VWS V14.01,2013-01-09 10:24:00,
2013-01-09 03:30:00,13.6,9.4,30.47,SW,226,3.0,9.0,83,0.00,,SKC,0.00,0.00,VWS V14.01,2013-01-09 10:30:00,
2013-01-09 03:36:00,14.0,9.5,30.46,SW,223,0.0,6.0,82,0.00,,SKC,0.00,0.00,VWS V14.01,2013-01-09 10:36:00,
2013-01-09 03:42:00,13.9,9.2,30.46,SW,223,0.0,6.0,81,0.00,,SKC,0.00,0.00,VWS V14.01,2013-01-09 10:42:00,
2013-01-09 03:48:00,13.8,9.1,30.46,SW,223,0.0,6.0,81,0.00,,SKC,0.00,0.00,VWS V14.01,2013-01-09 10:48:00,
2013-01-09 03:54:00,13.5,8.5,30.46,SW,223,2.0,6.0,80,0.00,,SKC,0.00,0.00,VWS V14.01,2013-01-09 10:54:00,
2013-01-09 04:00:00,13.1,7.8,30.46,SW,223,3.0,6.0,79,0.00,,SKC,0.00,0.00,VWS V14.01,2013-01-09 11:00:00,
2013-01-09 04:06:00,12.7,7.4,30.50,SW,222,0.0,3.0,79,0.00,,SKC,0.00,0.00,VWS V14.01,2013-01-09 11:06:00,
2013-01-09 04:12:00,12.2,6.9,30.52,SW,223,0.0,3.0,79,0.00,,SKC,0.00,0.00,VWS V14.01,2013-01-09 11:12:00,
2013-01-09 04:18:00,11.8,6.6,30.52,SW,223,1.0,3.0,79,0.00,,SKC,0.00,0.00,VWS V14.01,2013-01-09 11:18:00,
2013-01-09 04:24:00,11.4,6.4,30.52,SW,222,0.0,3.0,80,0.00,,SKC,0.00,0.00,VWS V14.01,2013-01-09 11:24:00,
2013-01-09 04:30:00,11.0,6.1,30.52,SW,223,0.0,3.0,80,0.00,,SKC,0.00,0.00,VWS V14.01,2013-01-09 11:30:00,
2013-01-09 04:36:00,10.8,5.9,30.52,SW,223,0.0,0.0,80,0.00,,SKC,0.00,0.00,VWS V14.01,2013-01-09 11:36:00,
2013-01-09 04:42:00,10.6,5.9,30.52,SW,223,0.0,0.0,81,0.00,,SKC,0.00,0.00,VWS V14.01,2013-01-09 11:42:00,
2013-01-09 04:48:00,10.3,5.6,30.54,SW,223,0.0,0.0,81,0.00,,SKC,0.00,0.00,VWS V14.01,2013-01-09 11:48:00,
2013-01-09 04:54:00,10.0,5.3,30.54,SW,223,0.0,0.0,81,0.00,,SKC,0.00,0.00,VWS V14.01,2013-01-09 11:54:00,
2013-01-09 05:00:00,9.9,5.2,30.55,SW,223,0.0,0.0,81,0.00,,SKC,0.00,0.00,VWS V14.01,2013-01-09 12:00:00,
2013-01-09 05:05:00,9.6,4.9,30.58,SW,223,0.0,0.0,81,0.00,,SKC,0.00,0.00,VWS V14.01,2013-01-09 12:05:00,
2013-01-09 05:11:00,9.3,4.7,30.59,SW,223,0.0,1.0,81,0.00,,SKC,0.00,0.00,VWS V14.01,2013-01-09 12:11:00,
2013-01-09 05:17:00,9.0,4.6,30.59,SW,223,1.0,3.0,82,0.00,,SKC,0.00,0.00,VWS V14.01,2013-01-09 12:17:00,
2013-01-09 05:23:00,8.7,4.3,30.59,SW,223,2.0,5.0,82,0.00,,SKC,0.00,0.00,VWS V14.01,2013-01-09 12:23:00,
2013-01-09 05:30:00,9.0,5.2,30.59,SW,217,5.0,7.0,84,0.00,,SKC,0.00,0.00,VWS V14.01,2013-01-09 12:30:00,
2013-01-09 05:36:00,9.7,6.1,30.57,SW,218,4.0,7.0,85,0.00,,SKC,0.00,0.00,VWS V14.01,2013-01-09 12:36:00,
2013-01-09 05:42:00,10.5,7.2,30.57,SSW,205,8.0,9.0,86,0.00,,SKC,0.00,0.00,VWS V14.01,2013-01-09 12:42:00,
2013-01-09 05:48:00,11.3,7.7,30.57,South,174,7.0,10.0,85,0.00,,SKC,0.00,0.00,VWS V14.01,2013-01-09 12:48:00,
2013-01-09 05:54:00,11.9,8.3,30.55,SSW,213,0.0,10.0,85,0.00,,SKC,0.00,0.00,VWS V14.01,2013-01-09 12:54:00,
2013-01-09 06:00:00,11.9,8.0,30.54,South,170,3.0,10.0,84,0.00,,SKC,0.00,0.00,VWS V14.01,2013-01-09 13:00:00,
2013-01-09 06:06:00,12.0,7.8,30.56,South,171,1.0,6.0,83,0.00,,SKC,0.00,0.00,VWS V14.01,2013-01-09 13:06:00,
2013-01-09 06:12:00,11.9,7.7,30.56,SW,217,2.0,7.0,83,0.00,,SKC,0.00,0.00,VWS V14.01,2013-01-09 13:12:00,
2013-01-09 06:18:00,12.0,7.6,30.56,SW,217,1.0,7.0,82,0.00,,SKC,0.00,0.00,VWS V14.01,2013-01-09 13:18:00,
2013-01-09 06:24:00,11.9,7.5,30.56,SW,217,0.0,7.0,82,0.00,,SKC,0.00,0.00,VWS V14.01,2013-01-09 13:24:00,
2013-01-09 06:30:00,11.7,7.3,30.56,SW,217,1.0,7.0,82,0.00,,SKC,0.00,0.00,VWS V14.01,2013-01-09 13:30:00,
2013-01-09 06:36:00,11.5,7.1,30.56,SW,217,2.0,5.0,82,0.00,,SKC,0.00,0.00,VWS V14.01,2013-01-09 13:36:00,
2013-01-09 06:42:00,11.4,7.0,30.58,SW,217,0.0,5.0,82,0.00,,SKC,0.00,0.00,VWS V14.01,2013-01-09 13:42:00,
2013-01-09 06:48:00,11.3,6.9,30.58,SW,217,0.0,5.0,82,0.00,,SKC,0.00,0.00,VWS V14.01,2013-01-09 13:48:00,
2013-01-09 06:54:00,11.2,6.8,30.58,SW,217,1.0,5.0,82,0.00,,SKC,0.00,0.00,VWS V14.01,2013-01-09 13:54:00,
2013-01-09 07:00:00,10.9,6.5,30.58,SW,217,1.0,5.0,82,0.00,,SKC,0.00,0.00,VWS V14.01,2013-01-09 14:00:00,
2013-01-09 07:06:00,10.6,6.2,30.59,SW,217,0.0,2.0,82,0.00,,SKC,0.00,0.00,VWS V14.01,2013-01-09 14:06:00,
2013-01-09 07:12:00,10.4,5.7,30.59,SW,217,1.0,2.0,81,0.00,,SKC,0.00,0.00,VWS V14.01,2013-01-09 14:12:00,
2013-01-09 07:18:00,10.1,5.7,30.59,SW,217,0.0,2.0,82,0.00,,SKC,0.00,0.00,VWS V14.01,2013-01-09 14:18:00,
2013-01-09 07:24:00,9.9,5.5,30.59,SW,217,2.0,2.0,82,0.00,,SKC,0.00,0.00,VWS V14.01,2013-01-09 14:24:00,
2013-01-09 07:30:00,9.8,5.4,30.59,SW,217,0.0,2.0,82,0.00,,SKC,0.00,0.00,VWS V14.01,2013-01-09 14:30:00,
2013-01-09 07:36:00,9.6,5.2,30.60,SW,217,0.0,0.0,82,0.00,,SKC,0.00,5.00,VWS V14.01,2013-01-09 14:36:00,
2013-01-09 07:42:00,9.5,5.1,30.61,SW,217,0.0,0.0,82,0.00,,SKC,0.00,7.00,VWS V14.01,2013-01-09 14:42:00,
2013-01-09 07:48:00,9.2,5.1,30.63,SW,217,0.0,2.0,83,0.00,,SKC,0.00,7.00,VWS V14.01,2013-01-09 14:48:00,
2013-01-09 07:54:00,9.0,4.9,30.63,SW,217,0.0,2.0,83,0.00,,SKC,0.00,9.00,VWS V14.01,2013-01-09 14:54:00,
2013-01-09 08:00:00,8.9,4.5,30.62,SW,217,1.0,2.0,82,0.00,,SKC,0.00,11.00,VWS V14.01,2013-01-09 15:00:00,
2013-01-09 08:06:00,8.6,4.5,30.64,SW,217,2.0,2.0,83,0.00,,SKC,0.00,11.00,VWS V14.01,2013-01-09 15:06:00,
2013-01-09 08:12:00,8.4,4.3,30.64,SW,217,0.0,3.0,83,0.00,,SKC,0.00,12.00,VWS V14.01,2013-01-09 15:12:00,
2013-01-09 08:18:00,8.3,4.2,30.64,SW,217,1.0,3.0,83,0.00,,SKC,0.00,12.00,VWS V14.01,2013-01-09 15:18:00,
2013-01-09 08:24:00,8.5,4.9,30.63,SW,217,2.0,5.0,85,0.00,,SKC,0.00,14.00,VWS V14.01,2013-01-09 15:24:00,
2013-01-09 08:30:00,9.2,5.9,30.63,SW,217,0.0,6.0,86,0.00,,SKC,0.00,14.00,VWS V14.01,2013-01-09 15:30:00,
2013-01-09 08:35:00,9.5,5.9,30.61,SW,217,1.0,2.0,85,0.00,,SKC,0.00,16.00,VWS V14.01,2013-01-09 15:35:00,
2013-01-09 08:41:00,9.6,6.0,30.61,SW,217,0.0,2.0,85,0.00,,SKC,0.00,16.00,VWS V14.01,2013-01-09 15:41:00,
2013-01-09 08:47:00,9.7,6.1,30.61,SW,217,0.0,2.0,85,0.00,,SKC,0.00,18.00,VWS V14.01,2013-01-09 15:47:00,
2013-01-09 08:53:00,9.8,6.2,30.61,SW,217,1.0,3.0,85,0.00,,SKC,0.00,18.00,VWS V14.01,2013-01-09 15:53:00,
2013-01-09 08:59:00,9.9,6.3,30.61,SW,217,0.0,3.0,85,0.00,,SKC,0.00,19.00,VWS V14.01,2013-01-09 15:59:00,
2013-01-09 09:00:00,9.8,6.2,30.61,SW,217,0.0,3.0,85,0.00,,SKC,0.00,19.00,VWS V14.01,2013-01-09 16:00:00,
2013-01-09 09:05:00,9.9,6.3,30.60,SW,217,0.0,2.0,85,0.00,,SKC,0.00,19.00,VWS V14.01,2013-01-09 16:05:00,
2013-01-09 09:11:00,9.9,6.3,30.60,SW,217,0.0,2.0,85,0.00,,SKC,0.00,21.00,VWS V14.01,2013-01-09 16:11:00,
2013-01-09 09:17:00,9.9,6.3,30.60,SW,217,0.0,2.0,85,0.00,,SKC,0.00,23.00,VWS V14.01,2013-01-09 16:17:00,
2013-01-09 09:24:00,10.0,6.4,30.60,SW,217,0.0,2.0,85,0.00,,SKC,0.00,25.00,VWS V14.01,2013-01-09 16:24:00,
2013-01-09 09:30:00,10.4,7.1,30.60,SW,217,0.0,2.0,86,0.00,,SKC,0.00,297.00,VWS V14.01,2013-01-09 16:30:00,
2013-01-09 09:36:00,12.8,9.9,30.58,SW,217,0.0,0.0,88,0.00,,SKC,0.00,315.00,VWS V14.01,2013-01-09 16:36:00,
2013-01-09 09:42:00,15.2,12.3,30.56,SW,217,0.0,1.0,88,0.00,,SKC,0.00,327.00,VWS V14.01,2013-01-09 16:42:00,
2013-01-09 09:48:00,17.5,14.0,30.54,SW,217,0.0,1.0,86,0.00,,SKC,0.00,339.00,VWS V14.01,2013-01-09 16:48:00,
2013-01-09 09:54:00,19.7,13.7,30.51,SW,217,1.0,4.0,77,0.00,,SKC,0.00,353.00,VWS V14.01,2013-01-09 16:54:00,
2013-01-09 10:00:00,21.5,14.2,30.51,SW,217,2.0,4.0,73,0.00,,SKC,0.00,367.00,VWS V14.01,2013-01-09 17:00:00,
2013-01-09 10:06:00,21.5,13.2,30.54,SW,217,0.0,3.0,70,0.00,,SKC,0.00,381.00,VWS V14.01,2013-01-09 17:06:00,
2013-01-09 10:12:00,22.1,13.5,30.52,SW,217,0.0,3.0,69,0.00,,SKC,0.00,396.00,VWS V14.01,2013-01-09 17:12:00,
2013-01-09 10:18:00,22.9,13.9,30.52,SW,217,0.0,3.0,68,0.00,,SKC,0.00,415.00,VWS V14.01,2013-01-09 17:18:00,
2013-01-09 10:24:00,24.1,14.7,30.50,SW,217,0.0,3.0,67,0.00,,SKC,0.00,425.00,VWS V14.01,2013-01-09 17:24:00,
2013-01-09 10:30:00,24.9,14.8,30.50,SW,217,0.0,3.0,65,0.00,,SKC,0.00,434.00,VWS V14.01,2013-01-09 17:30:00,
2013-01-09 10:36:00,25.6,15.1,30.48,SW,217,1.0,4.0,64,0.00,,SKC,0.00,443.00,VWS V14.01,2013-01-09 17:36:00,
2013-01-09 10:42:00,25.7,14.5,30.47,NE,49,3.0,5.0,62,0.00,,SKC,0.00,450.00,VWS V14.01,2013-01-09 17:42:00,
2013-01-09 10:48:00,25.4,14.6,30.48,NE,37,0.0,5.0,63,0.00,,SKC,0.00,459.00,VWS V14.01,2013-01-09 17:48:00,
2013-01-09 10:54:00,26.0,14.8,30.47,NE,36,3.0,5.0,62,0.00,,SKC,0.00,468.00,VWS V14.01,2013-01-09 17:54:00,
2013-01-09 11:00:00,26.8,15.5,30.46,NE,36,0.0,5.0,62,0.00,,SKC,0.00,476.00,VWS V14.01,2013-01-09 18:00:00,
2013-01-09 11:06:00,27.5,15.4,30.46,NE,36,0.0,3.0,60,0.00,,SKC,0.00,483.00,VWS V14.01,2013-01-09 18:06:00,
2013-01-09 11:12:00,27.7,15.3,30.45,NE,46,5.0,6.0,59,0.00,,SKC,0.00,489.00,VWS V14.01,2013-01-09 18:12:00,
2013-01-09 11:18:00,28.0,15.5,30.45,NE,54,4.0,6.0,59,0.00,,SKC,0.00,496.00,VWS V14.01,2013-01-09 18:18:00,
2013-01-09 11:24:00,28.3,15.4,30.44,NE,38,3.0,6.0,58,0.00,,SKC,0.00,462.00,VWS V14.01,2013-01-09 18:24:00,
2013-01-09 11:30:00,28.6,15.3,30.42,NE,35,0.0,6.0,57,0.00,,SKC,0.00,506.00,VWS V14.01,2013-01-09 18:30:00,
2013-01-09 11:36:00,28.8,15.9,30.41,NE,34,2.0,4.0,58,0.00,,SKC,0.00,512.00,VWS V14.01,2013-01-09 18:36:00,
2013-01-09 11:42:00,29.6,16.2,30.41,NNE,30,4.0,5.0,57,0.00,,SKC,0.00,515.00,VWS V14.01,2013-01-09 18:42:00,
2013-01-09 11:45:00,30.1,16.3,30.41,NE,39,6.0,6.0,56,0.00,,SKC,0.00,515.00,VWS V14.01,2013-01-09 18:45:00,
2013-01-09 11:47:00,30.1,15.9,30.40,NE,44,4.0,6.0,55,0.00,,SKC,0.00,517.00,VWS V14.01,2013-01-09 18:47:00,
2013-01-09 11:48:00,30.1,15.9,30.40,NE,45,2.0,6.0,55,0.00,,SKC,0.00,517.00,VWS V14.01,2013-01-09 18:48:00,
2013-01-09 11:50:00,30.1,16.3,30.40,NE,45,4.0,6.0,56,0.00,,SKC,0.00,519.00,VWS V14.01,2013-01-09 18:50:00,
2013-01-09 11:53:00,30.2,16.0,30.40,NNE,30,1.0,7.0,55,0.00,,SKC,0.00,519.00,VWS V14.01,2013-01-09 18:53:00,
2013-01-09 11:57:00,30.3,16.1,30.40,NNE,32,5.0,7.0,55,0.00,,SKC,0.00,522.00,VWS V14.01,2013-01-09 18:57:00,
2013-01-09 12:00:00,30.5,16.3,30.40,NNE,23,1.0,7.0,55,0.00,,SKC,0.00,522.00,VWS V14.01,2013-01-09 19:00:00,
2013-01-09 12:03:00,30.9,16.6,30.38,ENE,57,0.0,6.0,55,0.00,,SKC,0.00,522.00,VWS V14.01,2013-01-09 19:03:00,
2013-01-09 12:09:00,31.2,16.5,30.37,NE,50,5.0,6.0,54,0.00,,SKC,0.00,524.00,VWS V14.01,2013-01-09 19:09:00,
2013-01-09 12:15:00,31.2,16.1,30.36,NE,36,2.0,8.0,53,0.00,,SKC,0.00,476.00,VWS V14.01,2013-01-09 19:15:00,
2013-01-09 12:22:00,32.1,16.9,30.34,NNE,33,5.0,8.0,53,0.00,,SKC,0.00,526.00,VWS V14.01,2013-01-09 19:22:00,
2013-01-09 12:28:00,33.0,17.3,30.33,NE,34,3.0,8.0,52,0.00,,SKC,0.00,524.00,VWS V14.01,2013-01-09 19:28:00,
2013-01-09 12:30:00,33.2,17.0,30.33,NE,34,2.0,8.0,51,0.00,,SKC,0.00,524.00,VWS V14.01,2013-01-09 19:30:00,
2013-01-09 12:34:00,33.6,17.0,30.32,NE,34,3.0,5.0,50,0.00,,SKC,0.00,522.00,VWS V14.01,2013-01-09 19:34:00,
2013-01-09 12:40:00,33.9,17.2,30.32,NE,44,4.0,6.0,50,0.00,,SKC,0.00,520.00,VWS V14.01,2013-01-09 19:40:00,
2013-01-09 12:46:00,34.6,17.9,30.31,NE,44,2.0,6.0,50,0.00,,SKC,0.00,519.00,VWS V14.01,2013-01-09 19:46:00,
2013-01-09 12:52:00,35.0,17.8,30.30,NE,51,4.0,7.0,49,0.00,,SKC,0.00,515.00,VWS V14.01,2013-01-09 19:52:00,
2013-01-09 12:58:00,35.5,18.2,30.28,NE,34,3.0,9.0,49,0.00,,SKC,0.00,513.00,VWS V14.01,2013-01-09 19:58:00,
2013-01-09 13:00:00,35.8,18.5,30.28,NNE,19,2.0,9.0,49,0.00,,SKC,0.00,512.00,VWS V14.01,2013-01-09 20:00:00,
2013-01-09 13:04:00,36.0,17.7,30.29,NNW,345,0.0,5.0,47,0.00,,SKC,0.00,508.00,VWS V14.01,2013-01-09 20:04:00,
2013-01-09 13:10:00,36.5,18.2,30.29,NE,38,1.0,5.0,47,0.00,,SKC,0.00,503.00,VWS V14.01,2013-01-09 20:10:00,
2013-01-09 13:16:00,36.7,18.4,30.29,NNE,28,4.0,5.0,47,0.00,,SKC,0.00,499.00,VWS V14.01,2013-01-09 20:16:00,
2013-01-09 13:22:00,37.2,18.3,30.28,NE,34,3.0,5.0,46,0.00,,SKC,0.00,492.00,VWS V14.01,2013-01-09 20:22:00,
2013-01-09 13:29:00,37.4,18.0,30.28,NNE,33,2.0,5.0,45,0.00,,SKC,0.00,485.00,VWS V14.01,2013-01-09 20:29:00,
2013-01-09 13:30:00,37.5,18.1,30.26,NNE,33,0.0,5.0,45,0.00,,SKC,0.00,485.00,VWS V14.01,2013-01-09 20:30:00,
2013-01-09 13:35:00,37.7,18.3,30.26,NNE,33,3.0,4.0,45,0.00,,SKC,0.00,480.00,VWS V14.01,2013-01-09 20:35:00,
2013-01-09 13:41:00,38.0,18.6,30.26,NNE,33,0.0,5.0,45,0.00,,SKC,0.00,473.00,VWS V14.01,2013-01-09 20:41:00,
2013-01-09 13:47:00,38.3,18.3,30.25,NNE,33,0.0,5.0,44,0.00,,SKC,0.00,464.00,VWS V14.01,2013-01-09 20:47:00,
2013-01-09 13:53:00,38.6,18.6,30.25,NNE,33,0.0,5.0,44,0.00,,SKC,0.00,455.00,VWS V14.01,2013-01-09 20:53:00,
2013-01-09 13:59:00,38.9,18.3,30.25,NNE,33,0.0,5.0,43,0.00,,SKC,0.00,448.00,VWS V14.01,2013-01-09 20:59:00,
2013-01-09 14:00:00,39.0,19.0,30.25,NNE,33,3.0,5.0,44,0.00,,SKC,0.00,446.00,VWS V14.01,2013-01-09 21:00:00,
2013-01-09 14:05:00,39.0,18.4,30.26,NE,40,0.0,4.0,43,0.00,,SKC,0.00,438.00,VWS V14.01,2013-01-09 21:05:00,
2013-01-09 14:11:00,39.4,19.3,30.26,NE,40,4.0,4.0,44,0.00,,SKC,0.00,429.00,VWS V14.01,2013-01-09 21:11:00,
2013-01-09 14:17:00,39.6,19.0,30.26,NNE,25,2.0,6.0,43,0.00,,SKC,0.00,418.00,VWS V14.01,2013-01-09 21:17:00,
2013-01-09 14:23:00,39.5,18.9,30.26,NE,38,2.0,9.0,43,0.00,,SKC,0.00,406.00,VWS V14.01,2013-01-09 21:23:00,
2013-01-09 14:29:00,39.2,18.6,30.26,NE,51,1.0,9.0,43,0.00,,SKC,0.00,392.00,VWS V14.01,2013-01-09 21:29:00,
2013-01-09 14:30:00,39.1,19.0,30.26,NE,38,2.0,9.0,44,0.00,,SKC,0.00,392.00,VWS V14.01,2013-01-09 21:30:00,
2013-01-09 14:35:00,38.7,18.7,30.26,NE,34,1.0,7.0,44,0.00,,SKC,0.00,380.00,VWS V14.01,2013-01-09 21:35:00,
2013-01-09 14:41:00,38.3,18.8,30.28,NNE,18,1.0,8.0,45,0.00,,SKC,0.00,367.00,VWS V14.01,2013-01-09 21:41:00,
2013-01-09 14:47:00,37.8,18.9,30.28,NNE,18,9.0,10.0,46,0.00,,SKC,0.00,353.00,VWS V14.01,2013-01-09 21:47:00,
2013-01-09 14:53:00,37.5,18.1,30.28,North,5,0.0,10.0,45,0.00,,SKC,0.00,341.00,VWS V14.01,2013-01-09 21:53:00,
2013-01-09 14:59:00,37.5,18.6,30.28,NNE,29,6.0,10.0,46,0.00,,SKC,0.00,325.00,VWS V14.01,2013-01-09 21:59:00,
2013-01-09 15:00:00,37.4,18.5,30.28,NNE,30,2.0,10.0,46,0.00,,SKC,0.00,323.00,VWS V14.01,2013-01-09 22:00:00,
2013-01-09 15:05:00,37.4,18.5,30.26,NNE,19,1.0,5.0,46,0.01,,SKC,0.01,308.00,VWS V14.01,2013-01-09 22:05:00,
2013-01-09 15:11:00,37.5,18.6,30.26,NNE,22,6.0,7.0,46,0.01,,SKC,0.01,288.00,VWS V14.01,2013-01-09 22:11:00,
2013-01-09 15:18:00,37.5,18.1,30.25,NNE,31,5.0,7.0,45,0.01,,SKC,0.01,269.00,VWS V14.01,2013-01-09 22:18:00,
2013-01-09 15:24:00,37.4,18.0,30.25,NNE,24,3.0,7.0,45,0.01,,SKC,0.01,23.00,VWS V14.01,2013-01-09 22:24:00,
2013-01-09 15:30:00,37.0,18.2,30.26,NNE,24,3.0,7.0,46,0.01,,SKC,0.01,23.00,VWS V14.01,2013-01-09 22:30:00,
2013-01-09 15:36:00,36.7,18.4,30.25,NNE,24,0.0,2.0,47,0.01,,SKC,0.01,21.00,VWS V14.01,2013-01-09 22:36:00,
2013-01-09 15:42:00,36.3,18.5,30.27,NNE,24,0.0,2.0,48,0.01,,SKC,0.01,21.00,VWS V14.01,2013-01-09 22:42:00,
2013-01-09 15:48:00,35.4,18.6,30.27,NNE,24,1.0,2.0,50,0.01,,SKC,0.01,21.00,VWS V14.01,2013-01-09 22:48:00,
2013-01-09 15:54:00,34.4,18.2,30.29,NNE,24,1.0,2.0,51,0.01,,SKC,0.01,19.00,VWS V14.01,2013-01-09 22:54:00,
2013-01-09 16:00:00,33.7,18.4,30.28,NNE,24,0.0,3.0,53,0.01,,SKC,0.01,18.00,VWS V14.01,2013-01-09 23:00:00,
2013-01-09 16:06:00,32.9,18.1,30.31,NNE,24,0.0,2.0,54,0.01,,SKC,0.01,18.00,VWS V14.01,2013-01-09 23:06:00,
2013-01-09 16:12:00,32.3,17.5,30.31,NNE,24,0.0,2.0,54,0.01,,SKC,0.01,16.00,VWS V14.01,2013-01-09 23:12:00,
2013-01-09 16:18:00,31.9,18.0,30.31,NNE,24,0.0,2.0,56,0.01,,SKC,0.01,14.00,VWS V14.01,2013-01-09 23:18:00,
2013-01-09 16:24:00,31.6,17.7,30.31,NNE,24,0.0,2.0,56,0.01,,SKC,0.01,14.00,VWS V14.01,2013-01-09 23:24:00,
2013-01-09 16:30:00,31.2,17.8,30.33,NNE,24,0.0,2.0,57,0.01,,SKC,0.01,12.00,VWS V14.01,2013-01-09 23:30:00,
2013-01-09 16:36:00,30.8,17.8,30.33,NNE,24,0.0,1.0,58,0.00,,SKC,0.01,11.00,VWS V14.01,2013-01-09 23:36:00,
2013-01-09 16:42:00,30.2,17.6,30.32,NNE,24,0.0,1.0,59,0.00,,SKC,0.01,9.00,VWS V14.01,2013-01-09 23:42:00,
2013-01-09 16:48:00,29.8,17.2,30.32,NNE,24,0.0,2.0,59,0.00,,SKC,0.01,9.00,VWS V14.01,2013-01-09 23:48:00,
2013-01-09 16:54:00,29.3,17.1,30.34,NNE,24,0.0,2.0,60,0.00,,SKC,0.01,7.00,VWS V14.01,2013-01-09 23:54:00,
2013-01-09 17:00:00,28.8,16.7,30.33,NNE,24,0.0,2.0,60,0.00,,SKC,0.01,5.00,VWS V14.01,2013-01-10 00:00:00,
2013-01-09 17:06:00,28.3,17.0,30.32,NNE,24,0.0,1.0,62,0.00,,SKC,0.01,0.00,VWS V14.01,2013-01-10 00:06:00,
2013-01-09 17:12:00,27.8,16.5,30.32,NNE,24,0.0,1.0,62,0.00,,SKC,0.01,0.00,VWS V14.01,2013-01-10 00:12:00,
2013-01-09 17:18:00,27.3,16.4,30.33,NNE,24,1.0,1.0,63,0.00,,SKC,0.01,0.00,VWS V14.01,2013-01-10 00:18:00,
2013-01-09 17:24:00,26.8,16.3,30.33,NNE,24,0.0,2.0,64,0.00,,SKC,0.01,0.00,VWS V14.01,2013-01-10 00:24:00,
2013-01-09 17:30:00,26.3,16.5,30.33,NNE,24,0.0,2.0,66,0.00,,SKC,0.01,0.00,VWS V14.01,2013-01-10 00:30:00,
2013-01-09 17:37:00,25.9,15.8,30.33,NNE,24,0.0,0.0,65,0.00,,SKC,0.01,0.00,VWS V14.01,2013-01-10 00:37:00,
2013-01-09 17:43:00,25.5,15.7,30.33,NNE,24,0.0,0.0,66,0.00,,SKC,0.01,0.00,VWS V14.01,2013-01-10 00:43:00,
2013-01-09 17:49:00,25.1,15.7,30.34,NNE,24,0.0,0.0,67,0.00,,SKC,0.01,0.00,VWS V14.01,2013-01-10 00:49:00,
2013-01-09 17:55:00,24.7,15.7,30.34,NNE,24,0.0,0.0,68,0.00,,SKC,0.01,0.00,VWS V14.01,2013-01-10 00:55:00,
2013-01-09 18:00:00,24.4,15.7,30.34,NNE,24,0.0,0.0,69,0.00,,SKC,0.01,0.00,VWS V14.01,2013-01-10 01:00:00,
2013-01-09 18:05:00,24.1,15.4,30.36,NNE,24,0.0,1.0,69,0.00,,SKC,0.01,0.00,VWS V14.01,2013-01-10 01:05:00,
2013-01-09 18:11:00,23.7,14.7,30.35,NNE,24,0.0,1.0,68,0.00,,SKC,0.01,0.00,VWS V14.01,2013-01-10 01:11:00,
2013-01-09 18:18:00,23.3,14.6,30.36,NNE,24,0.0,1.0,69,0.00,,SKC,0.01,0.00,VWS V14.01,2013-01-10 01:18:00,
2013-01-09 18:24:00,22.9,14.6,30.35,NNE,24,0.0,1.0,70,0.00,,SKC,0.01,0.00,VWS V14.01,2013-01-10 01:24:00,
2013-01-09 18:30:00,22.6,14.9,30.35,NNE,24,0.0,1.0,72,0.00,,SKC,0.01,0.00,VWS V14.01,2013-01-10 01:30:00,
2013-01-09 18:36:00,22.2,14.2,30.37,NNE,24,0.0,1.0,71,0.00,,SKC,0.01,0.00,VWS V14.01,2013-01-10 01:36:00,
2013-01-09 18:42:00,21.7,14.4,30.37,NNE,24,0.0,1.0,73,0.00,,SKC,0.01,0.00,VWS V14.01,2013-01-10 01:42:00,
2013-01-09 18:48:00,21.4,14.4,30.37,NNE,24,0.0,1.0,74,0.00,,SKC,0.01,0.00,VWS V14.01,2013-01-10 01:48:00,
2013-01-09 18:54:00,21.2,14.2,30.36,NNE,24,0.0,1.0,74,0.00,,SKC,0.01,0.00,VWS V14.01,2013-01-10 01:54:00,
2013-01-09 19:00:00,20.9,14.2,30.36,NNE,24,0.0,1.0,75,0.00,,SKC,0.01,0.00,VWS V14.01,2013-01-10 02:00:00,
2013-01-09 19:06:00,20.5,13.9,30.38,NNE,24,0.0,0.0,75,0.00,,SKC,0.01,0.00,VWS V14.01,2013-01-10 02:06:00,
2013-01-09 19:12:00,20.2,13.6,30.39,NNE,24,1.0,1.0,75,0.00,,SKC,0.01,0.00,VWS V14.01,2013-01-10 02:12:00,
2013-01-09 19:19:00,19.7,13.7,30.39,NNE,24,0.0,2.0,77,0.00,,SKC,0.01,0.00,VWS V14.01,2013-01-10 02:19:00,
2013-01-09 19:25:00,19.6,13.6,30.39,NNE,24,0.0,2.0,77,0.00,,SKC,0.01,0.00,VWS V14.01,2013-01-10 02:25:00,
2013-01-09 19:30:00,19.3,13.3,30.39,NNE,24,0.0,2.0,77,0.00,,SKC,0.01,0.00,VWS V14.01,2013-01-10 02:30:00,
2013-01-09 19:35:00,19.0,13.0,30.38,NNE,24,0.0,0.0,77,0.00,,SKC,0.01,0.00,VWS V14.01,2013-01-10 02:35:00,
2013-01-09 19:41:00,18.7,13.0,30.38,NNE,24,0.0,1.0,78,0.00,,SKC,0.01,0.00,VWS V14.01,2013-01-10 02:41:00,
2013-01-09 19:47:00,18.4,12.7,30.40,NNE,24,0.0,1.0,78,0.00,,SKC,0.01,0.00,VWS V14.01,2013-01-10 02:47:00,
2013-01-09 19:53:00,18.1,12.7,30.40,NNE,24,0.0,2.0,79,0.00,,SKC,0.01,0.00,VWS V14.01,2013-01-10 02:53:00,
2013-01-09 19:59:00,17.9,12.8,30.40,NNE,24,0.0,2.0,80,0.00,,SKC,0.01,0.00,VWS V14.01,2013-01-10 02:59:00,
2013-01-09 20:00:00,17.9,12.8,30.40,NNE,24,0.0,2.0,80,0.00,,SKC,0.01,0.00,VWS V14.01,2013-01-10 03:00:00,
2013-01-09 20:06:00,17.7,12.6,30.38,NNE,24,0.0,1.0,80,0.00,,SKC,0.01,0.00,VWS V14.01,2013-01-10 03:06:00,
2013-01-09 20:12:00,17.5,12.4,30.37,NNE,24,0.0,1.0,80,0.00,,SKC,0.01,0.00,VWS V14.01,2013-01-10 03:12:00,
2013-01-09 20:18:00,17.3,12.5,30.39,NNE,24,0.0,1.0,81,0.00,,SKC,0.01,0.00,VWS V14.01,2013-01-10 03:18:00,
2013-01-09 20:24:00,17.2,12.4,30.39,NNE,24,0.0,1.0,81,0.00,,SKC,0.01,0.00,VWS V14.01,2013-01-10 03:24:00,
2013-01-09 20:30:00,16.9,12.1,30.39,NNE,24,0.0,1.0,81,0.00,,SKC,0.01,0.00,VWS V14.01,2013-01-10 03:30:00,
2013-01-09 20:36:00,16.7,11.9,30.39,NNE,24,0.0,0.0,81,0.00,,SKC,0.01,0.00,VWS V14.01,2013-01-10 03:36:00,
2013-01-09 20:42:00,16.5,12.0,30.39,NNE,24,0.0,0.0,82,0.00,,SKC,0.01,0.00,VWS V14.01,2013-01-10 03:42:00,
2013-01-09 20:48:00,16.3,11.8,30.39,NNE,24,0.0,1.0,82,0.00,,SKC,0.01,0.00,VWS V14.01,2013-01-10 03:48:00,
2013-01-09 20:54:00,16.1,11.6,30.39,NNE,24,0.0,1.0,82,0.00,,SKC,0.01,0.00,VWS V14.01,2013-01-10 03:54:00,
2013-01-09 21:00:00,15.8,11.3,30.39,NNE,24,0.0,2.0,82,0.00,,SKC,0.01,0.00,VWS V14.01,2013-01-10 04:00:00,
2013-01-09 21:06:00,15.5,11.3,30.30,NNE,24,0.0,1.0,83,0.00,,SKC,0.01,0.00,VWS V14.01,2013-01-10 04:06:00,
2013-01-09 21:12:00,15.2,11.0,30.31,NNE,24,1.0,2.0,83,0.00,,SKC,0.01,0.00,VWS V14.01,2013-01-10 04:12:00,
2013-01-09 21:18:00,15.1,10.9,30.31,NNE,24,0.0,2.0,83,0.00,,SKC,0.01,0.00,VWS V14.01,2013-01-10 04:18:00,
2013-01-09 21:25:00,14.9,10.9,30.31,NNE,24,0.0,2.0,84,0.00,,SKC,0.01,0.00,VWS V14.01,2013-01-10 04:25:00,
2013-01-09 21:30:00,14.7,10.8,30.30,NNE,24,0.0,2.0,84,0.00,,SKC,0.01,0.00,VWS V14.01,2013-01-10 04:30:00,
2013-01-09 21:35:00,14.5,10.6,30.30,NNE,24,0.0,2.0,84,0.00,,SKC,0.01,0.00,VWS V14.01,2013-01-10 04:35:00,
2013-01-09 21:41:00,14.3,10.4,30.30,NNE,24,0.0,2.0,84,0.00,,SKC,0.01,0.00,VWS V14.01,2013-01-10 04:41:00,
2013-01-09 21:47:00,14.3,10.4,30.30,NNE,24,0.0,2.0,84,0.00,,SKC,0.01,0.00,VWS V14.01,2013-01-10 04:47:00,
2013-01-09 21:53:00,14.1,10.2,30.29,NNE,24,0.0,2.0,84,0.00,,SKC,0.01,0.00,VWS V14.01,2013-01-10 04:53:00,
2013-01-09 22:00:00,14.0,10.3,30.30,NNE,24,0.0,2.0,85,0.00,,SKC,0.01,0.00,VWS V14.01,2013-01-10 05:00:00,
2013-01-09 22:03:00,13.9,10.2,30.26,NNE,24,0.0,0.0,85,0.00,,SKC,0.01,0.00,VWS V14.01,2013-01-10 05:03:00,
2013-01-09 22:04:00,13.9,10.2,30.27,NNE,24,0.0,0.0,85,0.00,,SKC,0.01,0.00,VWS V14.01,2013-01-10 05:04:00,
2013-01-09 22:10:00,13.8,10.1,30.27,NNE,24,0.0,0.0,85,0.00,,SKC,0.01,0.00,VWS V14.01,2013-01-10 05:10:00,
2013-01-09 22:13:00,13.7,10.0,30.27,NNE,24,0.0,0.0,85,0.00,,SKC,0.01,0.00,VWS V14.01,2013-01-10 05:13:00,
2013-01-09 22:20:00,13.6,9.9,30.26,NNE,24,0.0,2.0,85,0.00,,SKC,0.01,0.00,VWS V14.01,2013-01-10 05:20:00,
2013-01-09 22:26:00,13.4,9.7,30.26,NNE,24,0.0,2.0,85,0.00,,SKC,0.01,0.00,VWS V14.01,2013-01-10 05:26:00,
2013-01-09 22:30:00,13.3,9.6,30.26,NNE,24,0.0,2.0,85,0.00,,SKC,0.01,0.00,VWS V14.01,2013-01-10 05:30:00,
2013-01-09 22:32:00,13.3,9.6,30.25,NNE,24,0.0,0.0,85,0.00,,SKC,0.01,0.00,VWS V14.01,2013-01-10 05:32:00,
2013-01-09 22:38:00,13.1,9.4,30.25,NNE,24,0.0,0.0,85,0.00,,SKC,0.01,0.00,VWS V14.01,2013-01-10 05:38:00,
2013-01-09 22:44:00,12.8,9.1,30.25,NNE,24,0.0,2.0,85,0.00,,SKC,0.01,0.00,VWS V14.01,2013-01-10 05:44:00,
2013-01-09 22:50:00,12.6,9.0,30.24,NNE,24,1.0,2.0,85,0.00,,SKC,0.01,0.00,VWS V14.01,2013-01-10 05:50:00,
2013-01-09 22:56:00,12.2,8.6,30.26,NNE,24,0.0,2.0,85,0.00,,SKC,0.01,0.00,VWS V14.01,2013-01-10 05:56:00,
2013-01-09 23:00:00,12.1,8.5,30.26,NNE,24,0.0,2.0,85,0.00,,SKC,0.01,0.00,VWS V14.01,2013-01-10 06:00:00,
2013-01-09 23:02:00,12.0,8.6,30.22,NNE,24,0.0,1.0,86,0.00,,SKC,0.01,0.00,VWS V14.01,2013-01-10 06:02:00,
2013-01-09 23:08:00,11.9,8.5,30.22,NNE,24,0.0,2.0,86,0.00,,SKC,0.01,0.00,VWS V14.01,2013-01-10 06:08:00,
2013-01-09 23:15:00,11.7,8.3,30.22,NNE,24,3.0,3.0,86,0.00,,SKC,0.01,0.00,VWS V14.01,2013-01-10 06:15:00,
2013-01-09 23:21:00,11.8,8.4,30.21,NNE,24,0.0,3.0,86,0.00,,SKC,0.01,0.00,VWS V14.01,2013-01-10 06:21:00,
2013-01-09 23:27:00,11.7,8.3,30.21,NNE,24,0.0,3.0,86,0.00,,SKC,0.01,0.00,VWS V14.01,2013-01-10 06:27:00,
2013-01-09 23:30:00,11.7,8.3,30.21,NNE,24,0.0,3.0,86,0.00,,SKC,0.01,0.00,VWS V14.01,2013-01-10 06:30:00,
2013-01-09 23:33:00,11.7,8.3,30.21,NNE,24,0.0,1.0,86,0.00,,SKC,0.01,0.00,VWS V14.01,2013-01-10 06:33:00,
2013-01-09 23:39:00,11.7,8.6,30.20,NNE,24,0.0,1.0,87,0.00,,SKC,0.01,0.00,VWS V14.01,2013-01-10 06:39:00,
2013-01-09 23:45:00,11.7,8.6,30.19,NNE,24,0.0,1.0,87,0.00,,SKC,0.01,0.00,VWS V14.01,2013-01-10 06:45:00,
2013-01-09 23:51:00,11.7,8.6,30.18,NNE,24,0.0,1.0,87,0.00,,SKC,0.01,0.00,VWS V14.01,2013-01-10 06:51:00,
2013-01-09 23:57:00,11.7,8.6,30.18,NNE,24,0.0,1.0,87,0.00,,SKC,0.01,0.00,VWS V14.01,2013-01-10 06:57:00,